sensor_id;sensor_type;location;lat;lon;timestamp;P1;durP1;ratioP1;P2;durP2;ratioP2
17570;SDS011;8903;52.220;20.978;2023-04-19T00:00:13;7.67;;;5.90;;
17570;SDS011;8903;52.220;20.978;2023-04-19T00:02:42;7.70;;;5.97;;
17570;SDS011;8903;52.220;20.978;2023-04-19T00:05:09;6.53;;;5.37;;
17570;SDS011;8903;52.220;20.978;2023-04-19T00:07:37;7.23;;;5.83;;
17570;SDS011;8903;52.220;20.978;2023-04-19T00:10:05;6.83;;;6.13;;
17570;SDS011;8903;52.220;20.978;2023-04-19T00:12:32;5.93;;;5.13;;
17570;SDS011;8903;52.220;20.978;2023-04-19T00:14:59;6.23;;;5.30;;
17570;SDS011;8903;52.220;20.978;2023-04-19T00:17:26;6.07;;;5.47;;
17570;SDS011;8903;52.220;20.978;2023-04-19T00:19:55;8.50;;;6.67;;
17570;SDS011;8903;52.220;20.978;2023-04-19T00:22:22;6.90;;;6.03;;
17570;SDS011;8903;52.220;20.978;2023-04-19T00:24:49;7.60;;;6.17;;
17570;SDS011;8903;52.220;20.978;2023-04-19T00:27:16;7.03;;;6.10;;
17570;SDS011;8903;52.220;20.978;2023-04-19T00:29:43;7.00;;;5.93;;
17570;SDS011;8903;52.220;20.978;2023-04-19T00:32:10;5.80;;;5.17;;
17570;SDS011;8903;52.220;20.978;2023-04-19T00:34:37;5.43;;;4.90;;
17570;SDS011;8903;52.220;20.978;2023-04-19T00:37:07;5.97;;;5.37;;
17570;SDS011;8903;52.220;20.978;2023-04-19T00:39:35;7.27;;;4.93;;
17570;SDS011;8903;52.220;20.978;2023-04-19T00:42:03;5.93;;;5.33;;
17570;SDS011;8903;52.220;20.978;2023-04-19T00:44:30;5.93;;;5.33;;
17570;SDS011;8903;52.220;20.978;2023-04-19T00:46:57;6.07;;;5.47;;
17570;SDS011;8903;52.220;20.978;2023-04-19T00:49:26;9.33;;;6.17;;
17570;SDS011;8903;52.220;20.978;2023-04-19T00:51:53;7.93;;;6.90;;
17570;SDS011;8903;52.220;20.978;2023-04-19T00:54:21;11.67;;;7.07;;
17570;SDS011;8903;52.220;20.978;2023-04-19T00:56:49;8.10;;;6.50;;
17570;SDS011;8903;52.220;20.978;2023-04-19T00:59:16;7.50;;;6.57;;
17570;SDS011;8903;52.220;20.978;2023-04-19T01:01:44;8.47;;;6.13;;
17570;SDS011;8903;52.220;20.978;2023-04-19T01:04:11;9.77;;;7.03;;
17570;SDS011;8903;52.220;20.978;2023-04-19T01:06:38;9.67;;;7.00;;
17570;SDS011;8903;52.220;20.978;2023-04-19T01:09:09;7.97;;;7.17;;
17570;SDS011;8903;52.220;20.978;2023-04-19T01:11:40;8.30;;;7.10;;
17570;SDS011;8903;52.220;20.978;2023-04-19T01:14:07;11.17;;;9.60;;
17570;SDS011;8903;52.220;20.978;2023-04-19T01:16:34;11.10;;;9.00;;
17570;SDS011;8903;52.220;20.978;2023-04-19T01:19:03;11.77;;;8.70;;
17570;SDS011;8903;52.220;20.978;2023-04-19T01:21:30;13.13;;;8.83;;
17570;SDS011;8903;52.220;20.978;2023-04-19T01:23:58;13.63;;;11.00;;
17570;SDS011;8903;52.220;20.978;2023-04-19T01:26:25;12.80;;;10.83;;
17570;SDS011;8903;52.220;20.978;2023-04-19T01:28:52;14.20;;;11.90;;
17570;SDS011;8903;52.220;20.978;2023-04-19T01:31:19;12.80;;;11.10;;
17570;SDS011;8903;52.220;20.978;2023-04-19T01:33:46;13.10;;;11.27;;
17570;SDS011;8903;52.220;20.978;2023-04-19T01:36:13;11.47;;;10.27;;
17570;SDS011;8903;52.220;20.978;2023-04-19T01:38:40;12.37;;;10.57;;
17570;SDS011;8903;52.220;20.978;2023-04-19T01:41:09;13.50;;;11.63;;
17570;SDS011;8903;52.220;20.978;2023-04-19T01:43:36;13.53;;;10.77;;
17570;SDS011;8903;52.220;20.978;2023-04-19T01:46:03;13.00;;;11.53;;
17570;SDS011;8903;52.220;20.978;2023-04-19T01:48:30;13.83;;;10.80;;
17570;SDS011;8903;52.220;20.978;2023-04-19T01:50:58;16.27;;;10.67;;
17570;SDS011;8903;52.220;20.978;2023-04-19T01:53:25;13.07;;;10.40;;
17570;SDS011;8903;52.220;20.978;2023-04-19T01:55:52;13.37;;;10.80;;
17570;SDS011;8903;52.220;20.978;2023-04-19T01:58:21;13.50;;;12.10;;
17570;SDS011;8903;52.220;20.978;2023-04-19T02:00:48;14.00;;;12.00;;
17570;SDS011;8903;52.220;20.978;2023-04-19T02:03:15;14.70;;;12.00;;
17570;SDS011;8903;52.220;20.978;2023-04-19T02:05:42;12.70;;;10.90;;
17570;SDS011;8903;52.220;20.978;2023-04-19T02:08:09;12.83;;;11.00;;
17570;SDS011;8903;52.220;20.978;2023-04-19T02:10:35;13.27;;;11.87;;
17570;SDS011;8903;52.220;20.978;2023-04-19T02:13:02;13.03;;;11.50;;
17570;SDS011;8903;52.220;20.978;2023-04-19T02:15:31;16.23;;;12.20;;
17570;SDS011;8903;52.220;20.978;2023-04-19T02:17:58;14.03;;;11.23;;
17570;SDS011;8903;52.220;20.978;2023-04-19T02:20:25;19.37;;;11.43;;
17570;SDS011;8903;52.220;20.978;2023-04-19T02:22:52;14.20;;;12.13;;
17570;SDS011;8903;52.220;20.978;2023-04-19T02:25:19;13.60;;;11.40;;
17570;SDS011;8903;52.220;20.978;2023-04-19T02:27:46;13.10;;;10.83;;
17570;SDS011;8903;52.220;20.978;2023-04-19T02:30:13;12.80;;;10.53;;
17570;SDS011;8903;52.220;20.978;2023-04-19T02:32:41;10.53;;;9.43;;
17570;SDS011;8903;52.220;20.978;2023-04-19T02:35:11;11.13;;;9.47;;
17570;SDS011;8903;52.220;20.978;2023-04-19T02:37:38;10.70;;;9.43;;
17570;SDS011;8903;52.220;20.978;2023-04-19T02:40:06;10.17;;;9.17;;
17570;SDS011;8903;52.220;20.978;2023-04-19T02:42:34;14.87;;;10.80;;
17570;SDS011;8903;52.220;20.978;2023-04-19T02:45:01;12.37;;;10.07;;
17570;SDS011;8903;52.220;20.978;2023-04-19T02:47:28;11.53;;;10.33;;
17570;SDS011;8903;52.220;20.978;2023-04-19T02:49:57;14.73;;;10.27;;
17570;SDS011;8903;52.220;20.978;2023-04-19T02:52:25;16.23;;;12.10;;
17570;SDS011;8903;52.220;20.978;2023-04-19T02:54:53;17.10;;;11.37;;
17570;SDS011;8903;52.220;20.978;2023-04-19T02:57:20;14.47;;;11.50;;
17570;SDS011;8903;52.220;20.978;2023-04-19T02:59:47;12.43;;;10.80;;
17570;SDS011;8903;52.220;20.978;2023-04-19T03:02:14;12.27;;;10.80;;
17570;SDS011;8903;52.220;20.978;2023-04-19T03:04:41;13.77;;;11.10;;
17570;SDS011;8903;52.220;20.978;2023-04-19T03:07:10;10.70;;;9.60;;
17570;SDS011;8903;52.220;20.978;2023-04-19T03:09:38;9.50;;;8.50;;
17570;SDS011;8903;52.220;20.978;2023-04-19T03:12:06;10.03;;;9.07;;
17570;SDS011;8903;52.220;20.978;2023-04-19T03:14:33;10.03;;;8.90;;
17570;SDS011;8903;52.220;20.978;2023-04-19T03:17:01;9.00;;;8.20;;
17570;SDS011;8903;52.220;20.978;2023-04-19T03:19:28;11.23;;;9.87;;
17570;SDS011;8903;52.220;20.978;2023-04-19T03:21:55;11.60;;;9.70;;
17570;SDS011;8903;52.220;20.978;2023-04-19T03:24:27;11.60;;;10.27;;
17570;SDS011;8903;52.220;20.978;2023-04-19T03:26:56;11.87;;;9.73;;
17570;SDS011;8903;52.220;20.978;2023-04-19T03:29:27;12.63;;;10.73;;
17570;SDS011;8903;52.220;20.978;2023-04-19T03:32:01;11.77;;;10.53;;
17570;SDS011;8903;52.220;20.978;2023-04-19T03:34:28;12.33;;;10.00;;
17570;SDS011;8903;52.220;20.978;2023-04-19T03:36:55;14.13;;;11.37;;
17570;SDS011;8903;52.220;20.978;2023-04-19T03:39:23;12.47;;;10.80;;
17570;SDS011;8903;52.220;20.978;2023-04-19T03:41:58;14.63;;;12.67;;
17570;SDS011;8903;52.220;20.978;2023-04-19T03:44:41;12.37;;;10.97;;
17570;SDS011;8903;52.220;20.978;2023-04-19T03:47:08;19.50;;;13.93;;
17570;SDS011;8903;52.220;20.978;2023-04-19T03:49:41;15.03;;;13.43;;
17570;SDS011;8903;52.220;20.978;2023-04-19T03:52:08;17.10;;;14.13;;
17570;SDS011;8903;52.220;20.978;2023-04-19T03:54:35;17.83;;;14.67;;
17570;SDS011;8903;52.220;20.978;2023-04-19T03:57:07;17.07;;;13.30;;
17570;SDS011;8903;52.220;20.978;2023-04-19T03:59:37;16.60;;;13.33;;
17570;SDS011;8903;52.220;20.978;2023-04-19T04:02:04;16.03;;;14.30;;
17570;SDS011;8903;52.220;20.978;2023-04-19T04:04:31;17.30;;;13.77;;
17570;SDS011;8903;52.220;20.978;2023-04-19T04:06:59;18.77;;;15.03;;
17570;SDS011;8903;52.220;20.978;2023-04-19T04:09:26;19.20;;;14.83;;
17570;SDS011;8903;52.220;20.978;2023-04-19T04:11:53;18.10;;;14.30;;
17570;SDS011;8903;52.220;20.978;2023-04-19T04:14:22;17.03;;;14.47;;
17570;SDS011;8903;52.220;20.978;2023-04-19T04:16:49;18.20;;;15.37;;
17570;SDS011;8903;52.220;20.978;2023-04-19T04:19:16;18.57;;;15.30;;
17570;SDS011;8903;52.220;20.978;2023-04-19T04:21:46;16.83;;;13.80;;
17570;SDS011;8903;52.220;20.978;2023-04-19T04:24:13;12.90;;;11.50;;
17570;SDS011;8903;52.220;20.978;2023-04-19T04:26:56;13.20;;;10.67;;
17570;SDS011;8903;52.220;20.978;2023-04-19T04:29:29;13.30;;;11.60;;
17570;SDS011;8903;52.220;20.978;2023-04-19T04:32:00;12.10;;;9.83;;
17570;SDS011;8903;52.220;20.978;2023-04-19T04:34:34;9.93;;;8.90;;
17570;SDS011;8903;52.220;20.978;2023-04-19T04:37:06;15.40;;;9.17;;
17570;SDS011;8903;52.220;20.978;2023-04-19T04:39:35;10.20;;;9.10;;
17570;SDS011;8903;52.220;20.978;2023-04-19T04:42:04;11.70;;;9.70;;
17570;SDS011;8903;52.220;20.978;2023-04-19T04:44:34;12.90;;;10.40;;
17570;SDS011;8903;52.220;20.978;2023-04-19T04:47:03;17.57;;;12.53;;
17570;SDS011;8903;52.220;20.978;2023-04-19T04:49:37;12.53;;;11.23;;
17570;SDS011;8903;52.220;20.978;2023-04-19T04:52:04;16.37;;;12.33;;
17570;SDS011;8903;52.220;20.978;2023-04-19T04:54:38;15.07;;;13.10;;
17570;SDS011;8903;52.220;20.978;2023-04-19T04:57:16;13.90;;;12.40;;
17570;SDS011;8903;52.220;20.978;2023-04-19T04:59:44;15.50;;;13.60;;
17570;SDS011;8903;52.220;20.978;2023-04-19T05:02:12;18.87;;;15.43;;
17570;SDS011;8903;52.220;20.978;2023-04-19T05:04:39;15.17;;;13.50;;
17570;SDS011;8903;52.220;20.978;2023-04-19T05:07:08;17.97;;;15.40;;
17570;SDS011;8903;52.220;20.978;2023-04-19T05:09:36;17.67;;;14.73;;
17570;SDS011;8903;52.220;20.978;2023-04-19T05:12:03;25.37;;;18.03;;
17570;SDS011;8903;52.220;20.978;2023-04-19T05:14:31;22.60;;;17.37;;
17570;SDS011;8903;52.220;20.978;2023-04-19T05:16:59;26.40;;;19.10;;
17570;SDS011;8903;52.220;20.978;2023-04-19T05:19:28;25.60;;;19.50;;
17570;SDS011;8903;52.220;20.978;2023-04-19T05:22:00;27.83;;;20.67;;
17570;SDS011;8903;52.220;20.978;2023-04-19T05:24:28;33.20;;;25.93;;
17570;SDS011;8903;52.220;20.978;2023-04-19T05:26:56;35.47;;;25.03;;
17570;SDS011;8903;52.220;20.978;2023-04-19T05:29:23;30.67;;;23.60;;
17570;SDS011;8903;52.220;20.978;2023-04-19T05:31:54;33.73;;;23.60;;
17570;SDS011;8903;52.220;20.978;2023-04-19T05:34:28;30.37;;;23.33;;
17570;SDS011;8903;52.220;20.978;2023-04-19T05:36:56;32.10;;;20.73;;
17570;SDS011;8903;52.220;20.978;2023-04-19T05:39:24;29.73;;;21.93;;
17570;SDS011;8903;52.220;20.978;2023-04-19T05:41:51;33.30;;;21.77;;
17570;SDS011;8903;52.220;20.978;2023-04-19T05:44:18;30.33;;;20.33;;
17570;SDS011;8903;52.220;20.978;2023-04-19T05:46:45;28.63;;;19.57;;
17570;SDS011;8903;52.220;20.978;2023-04-19T05:49:17;34.67;;;19.97;;
17570;SDS011;8903;52.220;20.978;2023-04-19T05:52:12;27.47;;;18.87;;
17570;SDS011;8903;52.220;20.978;2023-04-19T05:54:44;23.13;;;19.00;;
17570;SDS011;8903;52.220;20.978;2023-04-19T05:57:11;25.47;;;19.73;;
17570;SDS011;8903;52.220;20.978;2023-04-19T05:59:38;32.60;;;21.27;;
17570;SDS011;8903;52.220;20.978;2023-04-19T06:02:05;26.80;;;19.20;;
17570;SDS011;8903;52.220;20.978;2023-04-19T06:04:33;33.43;;;22.67;;
17570;SDS011;8903;52.220;20.978;2023-04-19T06:07:00;37.10;;;23.13;;
17570;SDS011;8903;52.220;20.978;2023-04-19T06:09:28;34.90;;;25.30;;
17570;SDS011;8903;52.220;20.978;2023-04-19T06:11:55;32.60;;;23.93;;
17570;SDS011;8903;52.220;20.978;2023-04-19T06:14:24;43.10;;;25.20;;
17570;SDS011;8903;52.220;20.978;2023-04-19T06:16:52;44.60;;;27.00;;
17570;SDS011;8903;52.220;20.978;2023-04-19T06:19:20;45.57;;;28.93;;
17570;SDS011;8903;52.220;20.978;2023-04-19T06:21:47;49.03;;;30.10;;
17570;SDS011;8903;52.220;20.978;2023-04-19T06:24:14;56.17;;;31.03;;
17570;SDS011;8903;52.220;20.978;2023-04-19T06:26:42;55.90;;;32.97;;
17570;SDS011;8903;52.220;20.978;2023-04-19T06:29:11;57.60;;;35.17;;
17570;SDS011;8903;52.220;20.978;2023-04-19T06:31:38;65.07;;;37.80;;
17570;SDS011;8903;52.220;20.978;2023-04-19T06:34:05;77.00;;;37.30;;
17570;SDS011;8903;52.220;20.978;2023-04-19T06:36:32;62.40;;;39.50;;
17570;SDS011;8903;52.220;20.978;2023-04-19T06:38:59;71.33;;;38.67;;
17570;SDS011;8903;52.220;20.978;2023-04-19T06:41:26;69.97;;;39.80;;
17570;SDS011;8903;52.220;20.978;2023-04-19T06:43:54;72.43;;;43.30;;
17570;SDS011;8903;52.220;20.978;2023-04-19T06:46:21;79.07;;;43.57;;
17570;SDS011;8903;52.220;20.978;2023-04-19T06:48:48;71.27;;;41.70;;
17570;SDS011;8903;52.220;20.978;2023-04-19T06:51:15;77.70;;;43.60;;
17570;SDS011;8903;52.220;20.978;2023-04-19T06:53:42;91.10;;;45.00;;
17570;SDS011;8903;52.220;20.978;2023-04-19T06:56:09;67.47;;;42.60;;
17570;SDS011;8903;52.220;20.978;2023-04-19T06:58:37;75.70;;;43.57;;
17570;SDS011;8903;52.220;20.978;2023-04-19T07:01:05;54.80;;;37.67;;
17570;SDS011;8903;52.220;20.978;2023-04-19T07:03:32;58.60;;;38.60;;
17570;SDS011;8903;52.220;20.978;2023-04-19T07:06:00;66.33;;;39.23;;
17570;SDS011;8903;52.220;20.978;2023-04-19T07:08:27;59.70;;;39.07;;
17570;SDS011;8903;52.220;20.978;2023-04-19T07:10:54;52.63;;;33.47;;
17570;SDS011;8903;52.220;20.978;2023-04-19T07:13:21;46.53;;;33.13;;
17570;SDS011;8903;52.220;20.978;2023-04-19T07:15:49;60.63;;;36.80;;
17570;SDS011;8903;52.220;20.978;2023-04-19T07:18:17;54.50;;;33.20;;
17570;SDS011;8903;52.220;20.978;2023-04-19T07:20:44;43.20;;;31.03;;
17570;SDS011;8903;52.220;20.978;2023-04-19T07:23:14;47.30;;;30.53;;
17570;SDS011;8903;52.220;20.978;2023-04-19T07:25:41;41.37;;;28.60;;
17570;SDS011;8903;52.220;20.978;2023-04-19T07:28:08;43.00;;;30.57;;
17570;SDS011;8903;52.220;20.978;2023-04-19T07:30:35;48.83;;;29.53;;
17570;SDS011;8903;52.220;20.978;2023-04-19T07:33:02;51.13;;;30.97;;
17570;SDS011;8903;52.220;20.978;2023-04-19T07:35:33;42.03;;;28.07;;
17570;SDS011;8903;52.220;20.978;2023-04-19T07:38:00;49.43;;;29.77;;
17570;SDS011;8903;52.220;20.978;2023-04-19T07:40:27;40.70;;;27.00;;
17570;SDS011;8903;52.220;20.978;2023-04-19T07:42:54;36.40;;;25.40;;
17570;SDS011;8903;52.220;20.978;2023-04-19T07:45:21;39.03;;;27.40;;
17570;SDS011;8903;52.220;20.978;2023-04-19T07:47:48;46.37;;;29.67;;
17570;SDS011;8903;52.220;20.978;2023-04-19T07:50:16;49.23;;;28.97;;
17570;SDS011;8903;52.220;20.978;2023-04-19T07:52:44;39.03;;;26.40;;
17570;SDS011;8903;52.220;20.978;2023-04-19T07:55:11;38.27;;;24.30;;
17570;SDS011;8903;52.220;20.978;2023-04-19T07:57:38;33.00;;;23.80;;
17570;SDS011;8903;52.220;20.978;2023-04-19T08:00:05;37.57;;;26.13;;
17570;SDS011;8903;52.220;20.978;2023-04-19T08:02:42;30.53;;;23.30;;
17570;SDS011;8903;52.220;20.978;2023-04-19T08:05:09;34.63;;;25.30;;
17570;SDS011;8903;52.220;20.978;2023-04-19T08:07:36;36.70;;;24.67;;
17570;SDS011;8903;52.220;20.978;2023-04-19T08:10:06;33.17;;;23.80;;
17570;SDS011;8903;52.220;20.978;2023-04-19T08:12:33;27.90;;;21.43;;
17570;SDS011;8903;52.220;20.978;2023-04-19T08:15:00;34.40;;;22.63;;
17570;SDS011;8903;52.220;20.978;2023-04-19T08:17:27;31.23;;;23.20;;
17570;SDS011;8903;52.220;20.978;2023-04-19T08:19:54;28.53;;;21.00;;
17570;SDS011;8903;52.220;20.978;2023-04-19T08:22:21;26.60;;;21.20;;
17570;SDS011;8903;52.220;20.978;2023-04-19T08:24:49;26.07;;;20.83;;
17570;SDS011;8903;52.220;20.978;2023-04-19T08:27:18;27.43;;;21.67;;
17570;SDS011;8903;52.220;20.978;2023-04-19T08:29:45;29.03;;;21.60;;
17570;SDS011;8903;52.220;20.978;2023-04-19T08:32:12;23.60;;;19.17;;
17570;SDS011;8903;52.220;20.978;2023-04-19T08:34:39;22.70;;;20.20;;
17570;SDS011;8903;52.220;20.978;2023-04-19T08:37:06;25.30;;;19.70;;
17570;SDS011;8903;52.220;20.978;2023-04-19T08:39:33;26.30;;;21.70;;
17570;SDS011;8903;52.220;20.978;2023-04-19T08:42:02;24.63;;;19.40;;
17570;SDS011;8903;52.220;20.978;2023-04-19T08:44:32;25.43;;;19.27;;
17570;SDS011;8903;52.220;20.978;2023-04-19T08:47:00;23.10;;;18.40;;
17570;SDS011;8903;52.220;20.978;2023-04-19T08:49:27;28.63;;;18.37;;
17570;SDS011;8903;52.220;20.978;2023-04-19T08:51:56;31.80;;;19.63;;
17570;SDS011;8903;52.220;20.978;2023-04-19T08:54:23;28.30;;;19.17;;
17570;SDS011;8903;52.220;20.978;2023-04-19T08:56:51;19.13;;;17.07;;
17570;SDS011;8903;52.220;20.978;2023-04-19T08:59:18;25.80;;;19.00;;
17570;SDS011;8903;52.220;20.978;2023-04-19T09:01:47;20.33;;;16.07;;
17570;SDS011;8903;52.220;20.978;2023-04-19T09:04:14;26.03;;;17.60;;
17570;SDS011;8903;52.220;20.978;2023-04-19T09:06:41;20.90;;;17.23;;
17570;SDS011;8903;52.220;20.978;2023-04-19T09:09:14;23.23;;;16.87;;
17570;SDS011;8903;52.220;20.978;2023-04-19T09:11:42;21.13;;;17.00;;
17570;SDS011;8903;52.220;20.978;2023-04-19T09:14:10;24.07;;;18.20;;
17570;SDS011;8903;52.220;20.978;2023-04-19T09:16:39;20.03;;;15.83;;
17570;SDS011;8903;52.220;20.978;2023-04-19T09:19:07;26.83;;;16.40;;
17570;SDS011;8903;52.220;20.978;2023-04-19T09:21:36;20.60;;;16.67;;
17570;SDS011;8903;52.220;20.978;2023-04-19T09:24:04;20.03;;;15.90;;
17570;SDS011;8903;52.220;20.978;2023-04-19T09:26:32;18.60;;;15.20;;
17570;SDS011;8903;52.220;20.978;2023-04-19T09:29:00;17.83;;;13.90;;
17570;SDS011;8903;52.220;20.978;2023-04-19T09:31:29;16.73;;;14.03;;
17570;SDS011;8903;52.220;20.978;2023-04-19T09:33:57;16.60;;;14.07;;
17570;SDS011;8903;52.220;20.978;2023-04-19T09:36:38;19.97;;;16.03;;
17570;SDS011;8903;52.220;20.978;2023-04-19T09:39:06;18.33;;;15.20;;
17570;SDS011;8903;52.220;20.978;2023-04-19T09:41:34;20.60;;;15.63;;
17570;SDS011;8903;52.220;20.978;2023-04-19T09:44:08;17.10;;;14.80;;
17570;SDS011;8903;52.220;20.978;2023-04-19T09:46:36;17.60;;;15.80;;
17570;SDS011;8903;52.220;20.978;2023-04-19T09:49:15;20.70;;;16.57;;
17570;SDS011;8903;52.220;20.978;2023-04-19T09:51:46;19.73;;;14.40;;
17570;SDS011;8903;52.220;20.978;2023-04-19T09:54:15;34.00;;;15.90;;
17570;SDS011;8903;52.220;20.978;2023-04-19T09:56:43;17.77;;;14.20;;
17570;SDS011;8903;52.220;20.978;2023-04-19T09:59:10;18.47;;;14.07;;
17570;SDS011;8903;52.220;20.978;2023-04-19T10:01:38;19.23;;;14.20;;
17570;SDS011;8903;52.220;20.978;2023-04-19T10:04:08;15.43;;;13.83;;
17570;SDS011;8903;52.220;20.978;2023-04-19T10:06:36;21.83;;;14.90;;
17570;SDS011;8903;52.220;20.978;2023-04-19T10:09:06;24.00;;;16.00;;
17570;SDS011;8903;52.220;20.978;2023-04-19T10:11:35;19.73;;;13.27;;
17570;SDS011;8903;52.220;20.978;2023-04-19T10:14:04;20.73;;;14.07;;
17570;SDS011;8903;52.220;20.978;2023-04-19T10:16:33;15.63;;;12.83;;
17570;SDS011;8903;52.220;20.978;2023-04-19T10:19:01;17.70;;;14.10;;
17570;SDS011;8903;52.220;20.978;2023-04-19T10:21:29;16.40;;;13.90;;
17570;SDS011;8903;52.220;20.978;2023-04-19T10:23:57;20.87;;;16.93;;
17570;SDS011;8903;52.220;20.978;2023-04-19T10:26:26;27.87;;;21.53;;
17570;SDS011;8903;52.220;20.978;2023-04-19T10:28:54;23.90;;;17.97;;
17570;SDS011;8903;52.220;20.978;2023-04-19T10:31:23;17.57;;;15.47;;
17570;SDS011;8903;52.220;20.978;2023-04-19T10:33:51;21.50;;;15.93;;
17570;SDS011;8903;52.220;20.978;2023-04-19T10:36:19;15.57;;;13.67;;
17570;SDS011;8903;52.220;20.978;2023-04-19T10:38:46;17.67;;;15.83;;
17570;SDS011;8903;52.220;20.978;2023-04-19T10:41:16;18.37;;;15.77;;
17570;SDS011;8903;52.220;20.978;2023-04-19T10:43:45;18.60;;;14.10;;
17570;SDS011;8903;52.220;20.978;2023-04-19T10:46:14;14.60;;;13.10;;
17570;SDS011;8903;52.220;20.978;2023-04-19T10:49:01;16.13;;;13.90;;
17570;SDS011;8903;52.220;20.978;2023-04-19T10:51:31;17.93;;;13.30;;
17570;SDS011;8903;52.220;20.978;2023-04-19T10:53:59;17.87;;;14.27;;
17570;SDS011;8903;52.220;20.978;2023-04-19T10:59:25;15.83;;;14.20;;
17570;SDS011;8903;52.220;20.978;2023-04-19T11:01:53;17.97;;;15.20;;
17570;SDS011;8903;52.220;20.978;2023-04-19T11:07:28;17.10;;;15.30;;
17570;SDS011;8903;52.220;20.978;2023-04-19T11:10:02;17.00;;;14.73;;
17570;SDS011;8903;52.220;20.978;2023-04-19T11:12:30;22.20;;;20.20;;
17570;SDS011;8903;52.220;20.978;2023-04-19T11:15:00;24.57;;;14.73;;
17570;SDS011;8903;52.220;20.978;2023-04-19T11:17:28;27.50;;;14.80;;
17570;SDS011;8903;52.220;20.978;2023-04-19T11:19:56;18.57;;;14.20;;
17570;SDS011;8903;52.220;20.978;2023-04-19T11:22:30;19.63;;;15.20;;
17570;SDS011;8903;52.220;20.978;2023-04-19T11:25:08;18.93;;;13.80;;
17570;SDS011;8903;52.220;20.978;2023-04-19T11:27:36;14.47;;;12.70;;
17570;SDS011;8903;52.220;20.978;2023-04-19T11:30:06;15.80;;;12.73;;
17570;SDS011;8903;52.220;20.978;2023-04-19T11:32:35;16.33;;;14.13;;
17570;SDS011;8903;52.220;20.978;2023-04-19T11:35:03;16.33;;;13.47;;
17570;SDS011;8903;52.220;20.978;2023-04-19T11:37:32;18.80;;;14.20;;
17570;SDS011;8903;52.220;20.978;2023-04-19T11:39:59;14.40;;;12.90;;
17570;SDS011;8903;52.220;20.978;2023-04-19T11:42:26;14.23;;;12.43;;
17570;SDS011;8903;52.220;20.978;2023-04-19T11:44:53;13.60;;;11.90;;
17570;SDS011;8903;52.220;20.978;2023-04-19T11:47:23;16.30;;;12.90;;
17570;SDS011;8903;52.220;20.978;2023-04-19T11:49:52;14.60;;;12.37;;
17570;SDS011;8903;52.220;20.978;2023-04-19T11:52:20;14.37;;;12.17;;
17570;SDS011;8903;52.220;20.978;2023-04-19T11:54:49;15.00;;;13.40;;
17570;SDS011;8903;52.220;20.978;2023-04-19T11:57:25;14.90;;;11.30;;
17570;SDS011;8903;52.220;20.978;2023-04-19T12:00:03;12.57;;;11.27;;
17570;SDS011;8903;52.220;20.978;2023-04-19T12:02:41;15.50;;;10.80;;
17570;SDS011;8903;52.220;20.978;2023-04-19T12:05:09;12.33;;;10.90;;
17570;SDS011;8903;52.220;20.978;2023-04-19T12:07:37;12.47;;;11.17;;
17570;SDS011;8903;52.220;20.978;2023-04-19T12:10:23;11.30;;;9.80;;
17570;SDS011;8903;52.220;20.978;2023-04-19T12:12:51;14.30;;;10.43;;
17570;SDS011;8903;52.220;20.978;2023-04-19T12:15:18;13.97;;;11.03;;
17570;SDS011;8903;52.220;20.978;2023-04-19T12:17:59;13.17;;;11.70;;
17570;SDS011;8903;52.220;20.978;2023-04-19T12:20:28;12.70;;;11.50;;
17570;SDS011;8903;52.220;20.978;2023-04-19T12:22:56;11.83;;;10.03;;
17570;SDS011;8903;52.220;20.978;2023-04-19T12:25:26;11.47;;;9.63;;
17570;SDS011;8903;52.220;20.978;2023-04-19T12:27:54;11.00;;;9.73;;
17570;SDS011;8903;52.220;20.978;2023-04-19T12:30:21;15.93;;;10.33;;
17570;SDS011;8903;52.220;20.978;2023-04-19T12:32:48;13.33;;;10.80;;
17570;SDS011;8903;52.220;20.978;2023-04-19T12:35:17;11.03;;;9.80;;
17570;SDS011;8903;52.220;20.978;2023-04-19T12:37:44;14.80;;;10.60;;
17570;SDS011;8903;52.220;20.978;2023-04-19T12:40:11;9.87;;;8.87;;
17570;SDS011;8903;52.220;20.978;2023-04-19T12:42:39;14.60;;;8.90;;
17570;SDS011;8903;52.220;20.978;2023-04-19T12:45:07;10.57;;;8.80;;
17570;SDS011;8903;52.220;20.978;2023-04-19T12:47:35;9.87;;;8.70;;
17570;SDS011;8903;52.220;20.978;2023-04-19T12:50:02;10.43;;;9.33;;
17570;SDS011;8903;52.220;20.978;2023-04-19T12:52:31;9.93;;;9.00;;
17570;SDS011;8903;52.220;20.978;2023-04-19T12:54:58;13.70;;;10.67;;
17570;SDS011;8903;52.220;20.978;2023-04-19T12:57:25;11.40;;;9.90;;
17570;SDS011;8903;52.220;20.978;2023-04-19T12:59:52;34.10;;;22.97;;
17570;SDS011;8903;52.220;20.978;2023-04-19T13:02:19;16.30;;;13.97;;
17570;SDS011;8903;52.220;20.978;2023-04-19T13:04:46;14.23;;;10.17;;
17570;SDS011;8903;52.220;20.978;2023-04-19T13:07:13;10.17;;;9.17;;
17570;SDS011;8903;52.220;20.978;2023-04-19T13:09:41;8.20;;;7.40;;
17570;SDS011;8903;52.220;20.978;2023-04-19T13:12:08;11.10;;;8.13;;
17570;SDS011;8903;52.220;20.978;2023-04-19T13:14:36;7.43;;;6.73;;
17570;SDS011;8903;52.220;20.978;2023-04-19T13:17:03;8.33;;;7.53;;
17570;SDS011;8903;52.220;20.978;2023-04-19T13:19:30;7.07;;;6.47;;
17570;SDS011;8903;52.220;20.978;2023-04-19T13:21:57;8.87;;;8.07;;
17570;SDS011;8903;52.220;20.978;2023-04-19T13:24:24;9.03;;;8.10;;
17570;SDS011;8903;52.220;20.978;2023-04-19T13:26:52;8.87;;;8.03;;
17570;SDS011;8903;52.220;20.978;2023-04-19T13:29:19;9.60;;;8.70;;
17570;SDS011;8903;52.220;20.978;2023-04-19T13:31:46;7.10;;;6.40;;
17570;SDS011;8903;52.220;20.978;2023-04-19T13:34:13;7.30;;;6.60;;
17570;SDS011;8903;52.220;20.978;2023-04-19T13:36:40;7.73;;;6.93;;
17570;SDS011;8903;52.220;20.978;2023-04-19T13:39:07;10.37;;;6.97;;
17570;SDS011;8903;52.220;20.978;2023-04-19T13:41:34;7.60;;;6.77;;
17570;SDS011;8903;52.220;20.978;2023-04-19T13:44:03;10.87;;;7.90;;
17570;SDS011;8903;52.220;20.978;2023-04-19T13:46:30;9.20;;;7.43;;
17570;SDS011;8903;52.220;20.978;2023-04-19T13:48:57;8.97;;;8.00;;
17570;SDS011;8903;52.220;20.978;2023-04-19T13:51:25;9.50;;;8.00;;
17570;SDS011;8903;52.220;20.978;2023-04-19T13:53:52;17.80;;;8.17;;
17570;SDS011;8903;52.220;20.978;2023-04-19T13:56:19;8.90;;;8.00;;
17570;SDS011;8903;52.220;20.978;2023-04-19T13:58:46;9.73;;;8.23;;
17570;SDS011;8903;52.220;20.978;2023-04-19T14:01:14;15.00;;;8.97;;
17570;SDS011;8903;52.220;20.978;2023-04-19T14:03:41;11.83;;;8.00;;
17570;SDS011;8903;52.220;20.978;2023-04-19T14:06:08;9.57;;;7.60;;
17570;SDS011;8903;52.220;20.978;2023-04-19T14:08:35;12.53;;;7.80;;
17570;SDS011;8903;52.220;20.978;2023-04-19T14:11:02;8.10;;;7.30;;
17570;SDS011;8903;52.220;20.978;2023-04-19T14:13:30;7.83;;;7.00;;
17570;SDS011;8903;52.220;20.978;2023-04-19T14:15:57;10.20;;;8.23;;
17570;SDS011;8903;52.220;20.978;2023-04-19T14:18:25;9.20;;;8.07;;
17570;SDS011;8903;52.220;20.978;2023-04-19T14:20:53;11.00;;;8.57;;
17570;SDS011;8903;52.220;20.978;2023-04-19T14:23:20;9.53;;;8.20;;
17570;SDS011;8903;52.220;20.978;2023-04-19T14:25:47;12.43;;;8.33;;
17570;SDS011;8903;52.220;20.978;2023-04-19T14:28:15;10.70;;;8.40;;
17570;SDS011;8903;52.220;20.978;2023-04-19T14:30:42;8.90;;;8.00;;
17570;SDS011;8903;52.220;20.978;2023-04-19T14:33:09;12.07;;;8.63;;
17570;SDS011;8903;52.220;20.978;2023-04-19T14:35:37;8.87;;;7.43;;
17570;SDS011;8903;52.220;20.978;2023-04-19T14:38:06;8.13;;;7.33;;
17570;SDS011;8903;52.220;20.978;2023-04-19T14:40:33;10.30;;;7.60;;